10°C Temp
9°C Dewpoint
% Humidity
Temperature
8 KM/H
5 MPH
4 KTS
80°
Due East

Wind Speed
Clear
Conditions
Pressure 1020.92 (hPa) - 30.15 (in)
Visibility 5.0 (mi) - 8.0 (km)

Current Conditions
EPKT
Location 6km (3.2mi)
Metar :EPKT 212130Z 08004KT 8000 NSC 10/09 Q1021
Mon 21st October 23:30 pm

Airport
  Metar Aviation API Data Provided by https://www.checkwx.com/ CSS/SVG/PHP scripts by weather34.com © 2015-2019